Time;durP1;ratioP1;P1;durP2;ratioP2;P2;SDS_P1;SDS_P2;PMS_P1;PMS_P2;Temp;Humidity;BMP_temperature;BMP_pressure;BME280_temperature;BME280_humidity;BME280_pressure;Samples;Min_cycle;Max_cycle;Signal;HPM_P1;HPM_P2
2024/03/24 00:01:28;;;;;;;3.70;3.40;;;6.40;99.90;;;;;;5113307;28;20275;-69
2024/03/24 00:03:54;;;;;;;4.20;2.60;;;6.40;99.90;;;;;;5113294;28;20552;-69
2024/03/24 00:06:21;;;;;;;2.50;2.30;;;6.40;99.90;;;;;;5113210;28;20371;-68
2024/03/24 00:08:48;;;;;;;2.70;2.50;;;6.40;99.90;;;;;;5113032;28;20485;-69
2024/03/24 00:11:13;;;;;;;3.80;2.67;;;6.30;99.90;;;;;;5113389;28;20910;-68
2024/03/24 00:13:40;;;;;;;4.17;2.93;;;6.30;99.90;;;;;;5113785;28;20544;-69
2024/03/24 00:16:05;;;;;;;3.47;2.63;;;6.30;99.90;;;;;;5117261;28;20219;-69
2024/03/24 00:18:32;;;;;;;3.27;2.97;;;6.40;99.90;;;;;;5117050;28;21059;-69
2024/03/24 00:20:58;;;;;;;2.80;2.60;;;6.40;99.90;;;;;;5117079;28;20445;-69
2024/03/24 00:23:26;;;;;;;2.83;2.57;;;6.40;99.90;;;;;;5116953;28;20457;-69
2024/03/24 00:25:51;;;;;;;3.20;2.23;;;6.40;99.90;;;;;;5117157;28;20188;-69
2024/03/24 00:28:18;;;;;;;2.70;2.50;;;6.40;99.90;;;;;;5117078;28;20537;-69
2024/03/24 00:30:43;;;;;;;3.27;2.93;;;6.40;99.90;;;;;;5117027;28;20274;-69
2024/03/24 00:33:10;;;;;;;2.60;2.40;;;6.30;99.90;;;;;;5116867;28;20553;-69
2024/03/24 00:35:35;;;;;;;3.43;2.70;;;6.40;99.90;;;;;;5116852;28;20670;-69
2024/03/24 00:38:02;;;;;;;3.10;2.80;;;6.40;99.90;;;;;;5116544;28;20508;-69
2024/03/24 00:40:29;;;;;;;2.50;2.40;;;6.40;99.90;;;;;;5116810;28;20279;-69
2024/03/24 00:42:55;;;;;;;3.40;2.53;;;6.40;99.90;;;;;;5116782;28;20449;-69
2024/03/24 00:45:21;;;;;;;3.17;2.63;;;6.40;99.90;;;;;;5116451;28;20437;-69
2024/03/24 00:47:49;;;;;;;2.70;2.50;;;6.30;99.90;;;;;;5116629;28;20441;-69
2024/03/24 00:50:16;;;;;;;3.20;2.90;;;6.30;99.90;;;;;;5116519;28;20237;-69
2024/03/24 00:52:43;;;;;;;5.70;3.87;;;6.30;99.90;;;;;;5116342;28;21048;-69
2024/03/24 00:55:08;;;;;;;4.23;3.20;;;6.30;99.90;;;;;;5116576;28;20445;-69
2024/03/24 00:57:36;;;;;;;6.17;3.37;;;6.30;99.90;;;;;;5116385;28;20449;-69
2024/03/24 01:00:02;;;;;;;4.17;3.03;;;6.20;99.90;;;;;;5116464;28;20188;-69
2024/03/24 01:02:29;;;;;;;3.20;3.00;;;6.20;99.90;;;;;;5116298;27;20465;-69
2024/03/24 01:04:55;;;;;;;3.40;3.10;;;6.20;99.90;;;;;;5116193;28;20503;-69
2024/03/24 01:07:21;;;;;;;4.07;2.85;;;6.20;99.90;;;;;;5116064;28;20515;-69
2024/03/24 01:09:50;;;;;;;3.37;3.17;;;6.20;99.90;;;;;;5116398;28;20198;-69
2024/03/24 01:12:17;;;;;;;3.70;2.93;;;6.20;99.90;;;;;;5116204;28;20953;-69
2024/03/24 01:14:44;;;;;;;3.63;2.70;;;6.20;99.90;;;;;;5115927;28;20944;-69
2024/03/24 01:17:10;;;;;;;5.93;3.50;;;6.30;99.90;;;;;;5116073;28;20825;-69
2024/03/24 01:19:36;;;;;;;3.30;3.00;;;6.30;99.90;;;;;;5115732;28;20492;-69
2024/03/24 01:22:03;;;;;;;3.53;3.23;;;6.30;99.90;;;;;;5116066;28;21004;-69
2024/03/24 01:24:28;;;;;;;5.03;3.33;;;6.30;99.90;;;;;;5115740;28;20275;-69
2024/03/24 01:26:55;;;;;;;5.43;3.10;;;6.20;99.90;;;;;;5115854;28;20998;-69
2024/03/24 01:29:20;;;;;;;3.10;2.90;;;6.20;99.90;;;;;;5115827;28;20249;-69
2024/03/24 01:31:48;;;;;;;3.67;3.37;;;6.20;99.90;;;;;;5115682;28;20457;-69
2024/03/24 01:34:14;;;;;;;3.90;3.60;;;6.20;99.90;;;;;;5115684;28;20187;-68
2024/03/24 01:36:40;;;;;;;4.83;3.70;;;6.20;99.90;;;;;;5115863;28;20878;-68
2024/03/24 01:39:06;;;;;;;3.37;3.07;;;6.20;99.90;;;;;;5115697;28;20223;-69
2024/03/24 01:41:32;;;;;;;3.77;3.20;;;6.10;99.90;;;;;;5115568;28;21016;-69
2024/03/24 01:43:58;;;;;;;4.80;3.90;;;6.10;99.90;;;;;;5115633;28;20294;-69
2024/03/24 01:46:24;;;;;;;3.70;3.30;;;6.00;99.90;;;;;;5115329;28;20506;-69
2024/03/24 01:48:51;;;;;;;6.43;3.70;;;6.00;99.90;;;;;;5115370;28;20616;-69
2024/03/24 01:51:19;;;;;;;3.93;3.53;;;6.00;99.90;;;;;;5115503;28;20477;-69
2024/03/24 01:53:46;;;;;;;4.43;4.00;;;6.00;99.90;;;;;;5115249;28;20492;-69
2024/03/24 01:56:12;;;;;;;7.47;4.82;;;6.00;99.90;;;;;;5115356;28;20499;-70
2024/03/24 01:58:38;;;;;;;7.60;4.10;;;6.00;99.90;;;;;;5115234;28;20220;-69
2024/03/24 02:01:06;;;;;;;4.23;3.83;;;6.00;99.90;;;;;;5115203;28;20553;-69
2024/03/24 02:03:34;;;;;;;6.03;3.50;;;6.00;99.90;;;;;;5114975;28;20188;-69
2024/03/24 02:06:03;;;;;;;4.18;3.88;;;5.90;99.90;;;;;;5115231;28;20477;-69
2024/03/24 02:08:29;;;;;;;5.82;3.92;;;5.90;99.90;;;;;;5115080;28;20670;-69
2024/03/24 02:10:56;;;;;;;6.80;4.63;;;5.90;99.90;;;;;;5114992;28;20184;-69
2024/03/24 02:13:22;;;;;;;5.05;4.07;;;5.70;99.90;;;;;;5114806;28;20445;-69
2024/03/24 02:15:49;;;;;;;6.93;3.80;;;5.70;99.90;;;;;;5114825;28;20283;-69
2024/03/24 02:18:15;;;;;;;4.20;3.75;;;5.60;99.90;;;;;;5114626;28;20314;-69
2024/03/24 02:20:42;;;;;;;5.50;4.17;;;5.60;99.90;;;;;;5114890;28;20385;-69
2024/03/24 02:23:09;;;;;;;6.80;5.05;;;5.60;99.90;;;;;;5114621;28;21020;-69
2024/03/24 02:25:35;;;;;;;5.88;4.00;;;5.60;99.90;;;;;;5114661;28;20223;-69
2024/03/24 02:28:01;;;;;;;4.28;3.58;;;5.70;99.90;;;;;;5114652;28;20618;-69
2024/03/24 02:30:27;;;;;;;9.00;4.67;;;5.70;99.90;;;;;;5114829;28;20280;-69
2024/03/24 02:32:53;;;;;;;5.00;4.33;;;5.70;99.90;;;;;;5114668;28;20195;-70
2024/03/24 02:35:20;;;;;;;4.57;4.20;;;5.70;99.90;;;;;;5114628;28;20449;-69
2024/03/24 02:37:45;;;;;;;5.50;4.15;;;5.60;99.90;;;;;;5113830;28;20279;-69
2024/03/24 02:40:13;;;;;;;4.67;4.20;;;5.70;99.90;;;;;;5114360;28;20751;-69
2024/03/24 02:42:39;;;;;;;4.87;4.47;;;5.70;99.90;;;;;;5114308;28;20192;-69
2024/03/24 02:45:06;;;;;;;6.40;4.90;;;5.60;99.90;;;;;;5114190;28;20510;-69
2024/03/24 02:47:32;;;;;;;6.17;4.40;;;5.50;99.90;;;;;;5114460;28;20215;-69
2024/03/24 02:49:59;;;;;;;4.60;4.30;;;5.50;99.90;;;;;;5114295;28;20445;-69
2024/03/24 02:52:24;;;;;;;4.90;4.47;;;5.30;99.90;;;;;;5114149;28;20529;-69
2024/03/24 02:54:51;;;;;;;6.13;4.43;;;5.40;99.90;;;;;;5114185;28;20279;-69
2024/03/24 02:57:18;;;;;;;9.45;4.90;;;5.50;99.90;;;;;;5114000;28;20663;-69
2024/03/24 02:59:44;;;;;;;4.45;3.80;;;5.50;99.90;;;;;;5113884;28;20216;-69
2024/03/24 03:02:10;;;;;;;5.23;4.67;;;5.60;99.90;;;;;;5114142;28;20381;-69
2024/03/24 03:04:37;;;;;;;5.90;4.47;;;5.70;99.90;;;;;;5114106;28;20445;-69
2024/03/24 03:07:03;;;;;;;5.13;4.63;;;5.70;99.90;;;;;;5114001;28;20525;-69
2024/03/24 03:09:31;;;;;;;6.13;5.53;;;5.70;99.90;;;;;;5113923;28;20525;-69
2024/03/24 03:11:57;;;;;;;5.60;4.13;;;5.70;99.90;;;;;;5113781;28;20446;-69
2024/03/24 03:14:25;;;;;;;4.47;4.20;;;5.80;99.90;;;;;;5113692;28;20536;-69
2024/03/24 03:16:51;;;;;;;7.20;4.60;;;5.80;99.90;;;;;;5113900;28;20529;-69
2024/03/24 03:19:17;;;;;;;5.53;4.23;;;5.70;99.90;;;;;;5113687;28;20303;-68
2024/03/24 03:21:43;;;;;;;4.70;4.30;;;5.70;99.90;;;;;;5113783;28;20188;-69
2024/03/24 03:24:09;;;;;;;4.63;4.23;;;5.60;99.90;;;;;;5113669;28;20268;-69
2024/03/24 03:26:35;;;;;;;5.27;4.77;;;5.50;99.90;;;;;;5113501;28;20722;-69
2024/03/24 03:29:02;;;;;;;7.80;4.10;;;5.50;99.90;;;;;;5113497;28;20540;-69
2024/03/24 03:31:28;;;;;;;6.07;4.45;;;5.50;99.90;;;;;;5113776;28;20187;-69
2024/03/24 03:33:55;;;;;;;4.90;4.20;;;5.40;99.90;;;;;;5113596;28;20188;-69
2024/03/24 03:36:20;;;;;;;4.97;4.50;;;5.40;99.90;;;;;;5113669;28;20643;-69
2024/03/24 03:38:47;;;;;;;4.60;4.20;;;5.40;99.90;;;;;;5113355;28;20294;-69
2024/03/24 03:41:12;;;;;;;4.43;3.75;;;5.50;99.90;;;;;;5113434;28;20299;-69
2024/03/24 03:43:39;;;;;;;4.00;3.67;;;5.60;99.90;;;;;;5113686;28;20270;-69
2024/03/24 03:46:04;;;;;;;5.43;4.47;;;5.60;99.90;;;;;;5113313;28;20570;-69
2024/03/24 03:48:32;;;;;;;3.97;3.67;;;5.60;99.90;;;;;;5115649;28;20536;-69
2024/03/24 03:50:58;;;;;;;4.68;4.25;;;5.50;99.90;;;;;;5117769;28;20212;-69
2024/03/24 03:53:25;;;;;;;3.93;3.57;;;5.50;99.90;;;;;;5117674;28;20188;-69
2024/03/24 03:55:51;;;;;;;4.87;3.93;;;5.40;99.90;;;;;;5117478;28;20257;-69
2024/03/24 03:58:18;;;;;;;6.72;4.00;;;5.40;99.90;;;;;;5117685;28;20933;-69
2024/03/24 04:00:44;;;;;;;4.22;3.75;;;5.40;99.90;;;;;;5117595;28;20188;-69
2024/03/24 04:03:10;;;;;;;6.47;4.07;;;5.40;99.90;;;;;;5117522;28;20635;-69
2024/03/24 04:05:39;;;;;;;4.63;3.83;;;5.40;99.90;;;;;;5117481;28;20655;-68
2024/03/24 04:08:05;;;;;;;5.47;4.95;;;5.40;99.90;;;;;;5117345;28;20188;-69
2024/03/24 04:10:32;;;;;;;3.50;3.20;;;5.40;99.90;;;;;;5117226;28;20194;-69
2024/03/24 04:12:57;;;;;;;5.03;4.60;;;5.50;99.90;;;;;;5117474;28;20183;-69
2024/03/24 04:15:24;;;;;;;4.13;3.70;;;5.40;99.90;;;;;;5117343;28;20318;-69
2024/03/24 04:17:50;;;;;;;4.72;4.28;;;5.30;99.90;;;;;;5117256;28;20191;-69
2024/03/24 04:20:17;;;;;;;4.53;4.13;;;5.40;99.90;;;;;;5117136;28;20289;-69
2024/03/24 04:22:44;;;;;;;5.40;4.65;;;5.40;99.90;;;;;;5117125;28;20192;-68
2024/03/24 04:25:11;;;;;;;3.90;3.60;;;5.40;99.90;;;;;;5116902;28;20648;-69
2024/03/24 04:27:36;;;;;;;5.75;4.97;;;5.30;99.90;;;;;;5117116;28;20199;-69
2024/03/24 04:30:03;;;;;;;4.47;4.17;;;5.20;99.90;;;;;;5117190;28;20200;-69
2024/03/24 04:32:29;;;;;;;3.78;3.47;;;5.30;99.90;;;;;;5117023;28;20188;-69
2024/03/24 04:34:55;;;;;;;4.80;4.40;;;5.30;99.90;;;;;;5116979;28;20619;-69
2024/03/24 04:37:21;;;;;;;5.30;4.38;;;5.20;99.90;;;;;;5116833;28;20184;-69
2024/03/24 04:39:49;;;;;;;6.77;4.97;;;5.10;99.90;;;;;;5116443;28;20315;-69
2024/03/24 04:42:15;;;;;;;4.93;4.53;;;4.90;99.90;;;;;;5116864;28;20274;-69
2024/03/24 04:44:42;;;;;;;4.95;4.50;;;4.90;99.90;;;;;;5116749;28;20270;-69
2024/03/24 04:47:08;;;;;;;6.30;5.80;;;4.80;99.90;;;;;;5116499;28;20310;-69
2024/03/24 04:49:35;;;;;;;5.05;4.60;;;4.80;99.90;;;;;;5116563;28;20184;-69
2024/03/24 04:52:01;;;;;;;6.32;5.10;;;4.70;99.90;;;;;;5116453;28;20657;-69
2024/03/24 04:54:27;;;;;;;5.07;4.57;;;4.70;99.90;;;;;;5116372;28;20187;-69
2024/03/24 04:56:54;;;;;;;4.78;4.35;;;4.80;99.90;;;;;;5116566;28;20467;-69
2024/03/24 04:59:20;;;;;;;8.57;5.25;;;4.80;99.90;;;;;;5115727;28;20683;-69
2024/03/24 05:01:46;;;;;;;5.70;5.20;;;4.70;99.90;;;;;;5116341;28;20562;-69
2024/03/24 05:04:14;;;;;;;5.50;4.57;;;4.70;99.90;;;;;;5116282;28;20275;-69
2024/03/24 05:06:40;;;;;;;6.75;4.93;;;4.80;99.90;;;;;;5116172;28;20237;-69
2024/03/24 05:09:08;;;;;;;6.00;4.73;;;4.90;99.90;;;;;;5116360;28;20191;-68
2024/03/24 05:11:34;;;;;;;6.82;5.50;;;4.90;99.90;;;;;;5116288;28;20188;-69
2024/03/24 05:14:03;;;;;;;6.80;5.40;;;5.00;99.90;;;;;;5116091;28;20184;-69
2024/03/24 05:16:31;;;;;;;4.70;4.30;;;5.00;99.90;;;;;;5116073;28;20188;-69
2024/03/24 05:18:58;;;;;;;5.45;4.82;;;5.00;99.90;;;;;;5115922;28;20215;-69
2024/03/24 05:21:24;;;;;;;8.23;5.00;;;5.10;99.90;;;;;;5115797;28;20639;-68
2024/03/24 05:23:51;;;;;;;5.83;5.30;;;5.00;99.90;;;;;;5116153;28;20283;-68
2024/03/24 05:26:16;;;;;;;6.10;4.88;;;5.00;99.90;;;;;;5115976;28;20188;-68
2024/03/24 05:28:43;;;;;;;5.83;4.60;;;5.10;99.90;;;;;;5115891;28;20241;-68
2024/03/24 05:31:10;;;;;;;5.78;5.28;;;5.30;99.90;;;;;;5115818;28;20190;-68
2024/03/24 05:33:36;;;;;;;5.20;4.80;;;5.30;99.90;;;;;;5115715;28;20222;-69
2024/03/24 05:36:03;;;;;;;5.80;5.30;;;5.30;99.90;;;;;;5115592;28;20195;-68
2024/03/24 05:38:31;;;;;;;4.50;4.10;;;5.30;99.90;;;;;;5115684;28;20502;-68
2024/03/24 05:40:57;;;;;;;6.05;5.05;;;5.40;99.90;;;;;;5115627;28;20449;-68
2024/03/24 05:43:24;;;;;;;4.60;4.20;;;5.30;99.90;;;;;;5115613;28;20218;-68
2024/03/24 05:45:53;;;;;;;6.60;5.38;;;5.20;99.90;;;;;;5115329;28;20235;-69
2024/03/24 05:48:21;;;;;;;5.35;4.95;;;5.30;99.90;;;;;;5115382;28;20195;-68
2024/03/24 05:50:46;;;;;;;7.57;4.50;;;5.50;99.90;;;;;;5115285;28;20287;-68
2024/03/24 05:53:13;;;;;;;10.23;4.53;;;5.50;99.90;;;;;;5115468;28;20283;-68
2024/03/24 05:55:38;;;;;;;5.07;4.63;;;5.60;99.90;;;;;;5115324;28;20604;-68
2024/03/24 05:58:05;;;;;;;5.47;4.97;;;5.60;99.90;;;;;;5115073;28;20457;-68
2024/03/24 06:00:30;;;;;;;4.88;4.22;;;5.70;99.90;;;;;;5115164;28;20666;-69
2024/03/24 06:02:57;;;;;;;4.70;4.10;;;5.80;99.90;;;;;;5115066;28;20204;-68
2024/03/24 06:05:24;;;;;;;4.63;4.33;;;5.90;99.90;;;;;;5115335;27;20249;-68
2024/03/24 06:07:51;;;;;;;4.03;3.73;;;5.90;99.90;;;;;;5115168;28;20450;-68
2024/03/24 06:10:17;;;;;;;6.28;4.40;;;6.00;99.90;;;;;;5115030;28;20530;-68
2024/03/24 06:12:43;;;;;;;4.33;3.90;;;6.00;99.90;;;;;;5113980;28;20269;-68
2024/03/24 06:15:09;;;;;;;7.27;4.10;;;6.10;99.90;;;;;;5114924;28;20641;-68
2024/03/24 06:17:35;;;;;;;4.87;4.50;;;6.10;99.90;;;;;;5114646;28;20449;-68
2024/03/24 06:20:01;;;;;;;6.60;4.57;;;5.90;99.90;;;;;;5114908;28;20226;-68
2024/03/24 06:22:29;;;;;;;5.57;3.70;;;5.90;99.90;;;;;;5114826;28;20446;-69
2024/03/24 06:24:54;;;;;;;4.17;3.77;;;5.90;99.90;;;;;;5114733;28;20884;-68
2024/03/24 06:27:21;;;;;;;3.73;3.43;;;5.90;99.90;;;;;;5114659;28;20481;-68
2024/03/24 06:29:46;;;;;;;7.07;4.23;;;6.00;99.90;;;;;;5114561;28;20555;-68
2024/03/24 06:32:13;;;;;;;4.57;4.17;;;6.10;99.90;;;;;;5114189;28;20545;-68
2024/03/24 06:34:38;;;;;;;3.57;3.27;;;6.10;99.90;;;;;;5114435;28;20738;-68
2024/03/24 06:37:05;;;;;;;4.43;3.50;;;6.20;99.90;;;;;;5114582;27;20544;-68
2024/03/24 06:39:32;;;;;;;3.80;3.50;;;6.40;99.90;;;;;;5114454;28;20347;-68
2024/03/24 06:42:03;;;;;;;4.07;3.77;;;6.50;99.90;;;;;;5114324;28;20241;-68
2024/03/24 06:44:35;;;;;;;4.10;3.70;;;6.80;99.90;;;;;;5114309;28;20524;-68
2024/03/24 06:47:01;;;;;;;3.77;3.57;;;6.90;99.90;;;;;;5114006;28;20837;-69
2024/03/24 06:49:27;;;;;;;4.00;3.60;;;7.20;99.90;;;;;;5114318;28;20452;-68
2024/03/24 06:51:54;;;;;;;5.70;3.10;;;7.50;99.90;;;;;;5114174;28;20900;-68
2024/03/24 06:54:19;;;;;;;3.90;3.30;;;7.60;99.90;;;;;;5114196;28;20215;-69
2024/03/24 06:56:47;;;;;;;3.70;3.20;;;7.90;99.90;;;;;;5114077;28;20492;-68
2024/03/24 06:59:13;;;;;;;3.70;3.40;;;8.00;99.90;;;;;;5113874;28;20621;-68
2024/03/24 07:01:39;;;;;;;3.23;2.93;;;7.80;99.90;;;;;;5114198;28;20454;-68
2024/03/24 07:04:05;;;;;;;4.00;3.20;;;7.60;99.90;;;;;;5114031;28;20194;-69
2024/03/24 07:06:32;;;;;;;3.10;2.80;;;7.50;99.90;;;;;;5113986;28;20449;-69
2024/03/24 07:08:58;;;;;;;3.10;2.83;;;7.60;99.90;;;;;;5113954;28;20438;-69
2024/03/24 07:11:24;;;;;;;4.47;2.80;;;7.60;99.90;;;;;;5114080;28;20516;-69
2024/03/24 07:13:51;;;;;;;3.47;3.17;;;7.70;99.90;;;;;;5113782;28;20190;-68
2024/03/24 07:16:17;;;;;;;3.37;3.10;;;7.70;99.90;;;;;;5113917;28;20507;-69
2024/03/24 07:18:43;;;;;;;2.70;2.50;;;7.70;99.90;;;;;;5113876;28;20533;-68
2024/03/24 07:21:09;;;;;;;3.40;2.40;;;7.80;99.90;;;;;;5113419;28;20564;-69
2024/03/24 07:23:35;;;;;;;3.93;3.30;;;8.00;99.90;;;;;;5113412;28;20245;-69
2024/03/24 07:26:03;;;;;;;3.50;3.20;;;7.90;99.90;;;;;;5113670;28;20493;-68
2024/03/24 07:28:28;;;;;;;2.93;2.73;;;7.90;99.90;;;;;;5113585;28;20190;-68
2024/03/24 07:30:56;;;;;;;3.53;3.23;;;7.70;99.90;;;;;;5113720;28;20532;-69
2024/03/24 07:33:22;;;;;;;6.53;3.40;;;7.60;99.90;;;;;;5113539;28;20184;-68
2024/03/24 07:35:48;;;;;;;3.40;3.10;;;7.80;99.90;;;;;;5113561;28;20536;-68
2024/03/24 07:38:13;;;;;;;3.10;2.80;;;7.60;99.90;;;;;;5113541;28;20275;-69
2024/03/24 07:40:40;;;;;;;3.27;2.97;;;7.60;99.90;;;;;;5113398;28;20595;-69
2024/03/24 07:43:06;;;;;;;4.60;2.97;;;7.70;99.90;;;;;;5113485;28;20729;-68
2024/03/24 07:45:33;;;;;;;4.53;2.63;;;7.70;99.90;;;;;;5113397;28;20481;-68
2024/03/24 07:47:59;;;;;;;2.57;2.37;;;7.90;99.90;;;;;;5113492;28;20441;-68
2024/03/24 07:50:26;;;;;;;3.20;2.80;;;8.10;99.90;;;;;;5113363;28;20482;-68
2024/03/24 07:52:52;;;;;;;3.80;2.37;;;8.40;99.90;;;;;;5113333;28;20452;-68
2024/03/24 07:55:19;;;;;;;2.90;2.70;;;8.40;99.90;;;;;;5113221;28;20449;-68
2024/03/24 07:57:44;;;;;;;2.63;2.40;;;8.40;99.90;;;;;;5112942;28;20238;-68
2024/03/24 08:00:12;;;;;;;8.90;2.93;;;8.30;99.90;;;;;;5113313;28;20488;-68
2024/03/24 08:02:38;;;;;;;3.20;2.90;;;8.40;99.90;;;;;;5113291;28;20256;-68
2024/03/24 08:05:06;;;;;;;3.20;2.30;;;8.50;99.90;;;;;;5113272;28;20461;-68
2024/03/24 08:07:31;;;;;;;2.60;2.50;;;8.50;99.90;;;;;;5113181;28;20188;-68
2024/03/24 08:09:58;;;;;;;5.80;3.30;;;8.50;99.90;;;;;;5112998;28;20461;-68
2024/03/24 08:12:24;;;;;;;3.63;2.60;;;8.60;99.90;;;;;;5112966;28;20280;-68
2024/03/24 08:14:50;;;;;;;2.97;2.77;;;8.40;99.90;;;;;;5113191;28;20536;-68
2024/03/24 08:17:16;;;;;;;2.93;2.73;;;8.60;99.90;;;;;;5113376;28;20279;-68
2024/03/24 08:19:42;;;;;;;2.60;2.40;;;8.50;99.90;;;;;;5112957;28;20902;-68
2024/03/24 08:22:09;;;;;;;2.40;2.20;;;8.50;99.90;;;;;;5112964;28;20275;-68
2024/03/24 08:24:35;;;;;;;2.53;2.33;;;8.50;99.90;;;;;;5112833;28;20863;-68
2024/03/24 08:27:01;;;;;;;5.60;2.90;;;8.60;99.90;;;;;;5113121;28;20532;-68
2024/03/24 08:29:27;;;;;;;5.47;2.50;;;8.60;99.90;;;;;;5113039;28;20544;-68
2024/03/24 08:31:53;;;;;;;5.50;2.43;;;8.50;99.90;;;;;;5112963;28;20283;-69
2024/03/24 08:34:19;;;;;;;2.50;2.30;;;8.50;99.90;;;;;;5112869;28;20540;-68
2024/03/24 08:36:45;;;;;;;2.60;2.40;;;8.60;99.90;;;;;;5116884;28;20192;-68
2024/03/24 08:39:13;;;;;;;2.80;2.60;;;8.80;99.90;;;;;;5116611;28;20537;-68
2024/03/24 08:41:39;;;;;;;2.63;2.43;;;8.70;99.90;;;;;;5116589;28;20655;-68
2024/03/24 08:44:06;;;;;;;2.80;2.60;;;8.90;99.90;;;;;;5116677;28;20949;-68
2024/03/24 08:46:31;;;;;;;3.80;2.70;;;8.90;99.90;;;;;;5116496;28;20882;-68
2024/03/24 08:48:58;;;;;;;8.23;2.57;;;9.00;99.90;;;;;;5116603;28;20488;-68
2024/03/24 08:51:23;;;;;;;2.60;2.33;;;9.20;99.90;;;;;;5116516;28;20219;-68
2024/03/24 08:53:50;;;;;;;3.13;2.20;;;9.40;99.90;;;;;;5116415;28;20472;-68
2024/03/24 08:56:17;;;;;;;4.43;2.70;;;9.50;99.90;;;;;;5116628;28;20291;-68
2024/03/24 08:58:44;;;;;;;5.73;2.97;;;9.60;99.90;;;;;;5116451;28;20449;-68
2024/03/24 09:01:09;;;;;;;3.30;2.57;;;9.50;99.90;;;;;;5116391;28;21023;-68
2024/03/24 09:03:36;;;;;;;4.07;2.70;;;9.50;99.90;;;;;;5116316;28;20477;-68
2024/03/24 09:06:01;;;;;;;3.47;2.20;;;9.40;99.90;;;;;;5116324;28;20280;-68
2024/03/24 09:08:28;;;;;;;4.57;2.50;;;9.60;99.90;;;;;;5116097;28;20944;-68
2024/03/24 09:10:53;;;;;;;9.90;7.13;;;9.70;99.90;;;;;;5116304;28;20190;-68
2024/03/24 09:13:21;;;;;;;4.33;2.63;;;9.90;99.90;;;;;;5116182;28;20525;-68
2024/03/24 09:15:47;;;;;;;2.90;2.60;;;9.90;99.90;;;;;;5116011;28;20659;-68
2024/03/24 09:18:13;;;;;;;2.30;2.10;;;9.80;99.90;;;;;;5116015;28;20453;-68
2024/03/24 09:20:39;;;;;;;2.70;2.50;;;9.80;99.90;;;;;;5115974;28;20508;-68
2024/03/24 09:23:05;;;;;;;2.43;2.23;;;9.80;99.90;;;;;;5115781;28;20894;-68
2024/03/24 09:25:31;;;;;;;4.47;3.17;;;9.90;99.90;;;;;;5115986;28;20187;-68
2024/03/24 09:27:58;;;;;;;3.10;2.90;;;9.90;99.90;;;;;;5115910;28;20544;-68
2024/03/24 09:30:25;;;;;;;2.77;2.57;;;10.00;99.90;;;;;;5115908;28;20192;-68
2024/03/24 09:32:52;;;;;;;3.83;2.40;;;10.10;99.90;;;;;;5115768;28;20450;-68
2024/03/24 09:35:17;;;;;;;3.03;2.10;;;10.10;99.90;;;;;;5115627;28;20453;-68
2024/03/24 09:37:44;;;;;;;3.30;2.40;;;10.20;99.90;;;;;;5115503;28;20937;-68
2024/03/24 09:40:10;;;;;;;3.63;3.33;;;10.20;99.90;;;;;;5115604;28;20222;-69
2024/03/24 09:42:37;;;;;;;2.27;2.17;;;10.20;99.90;;;;;;5115618;28;20541;-68
2024/03/24 09:45:03;;;;;;;2.63;2.43;;;10.20;99.90;;;;;;5115439;28;20484;-68
2024/03/24 09:47:33;;;;;;;8.27;2.77;;;10.30;99.90;;;;;;5114973;28;20477;-68
2024/03/24 09:49:59;;;;;;;3.30;2.67;;;10.10;99.90;;;;;;5115337;28;20472;-68
2024/03/24 09:52:29;;;;;;;3.33;3.00;;;10.00;99.90;;;;;;5115590;28;20545;-68
2024/03/24 09:54:55;;;;;;;10.27;2.60;;;10.00;99.90;;;;;;5115800;28;20444;-68
2024/03/24 09:57:25;;;;;;;3.00;2.70;;;9.90;99.90;;;;;;5115398;27;20544;-68
2024/03/24 09:59:53;;;;;;;2.77;2.27;;;9.70;99.90;;;;;;5115095;28;20482;-68
2024/03/24 10:02:20;;;;;;;2.73;2.53;;;9.60;99.90;;;;;;5115190;28;20445;-68
2024/03/24 10:04:47;;;;;;;3.20;2.60;;;9.70;99.90;;;;;;5115106;28;20961;-68
2024/03/24 10:07:14;;;;;;;2.47;2.27;;;9.60;99.90;;;;;;5115212;28;20461;-68
2024/03/24 10:09:39;;;;;;;2.90;2.70;;;9.60;99.90;;;;;;5114977;28;20449;-68
2024/03/24 10:12:15;;;;;;;3.13;2.83;;;9.60;99.90;;;;;;5114981;28;20540;-68
2024/03/24 10:14:41;;;;;;;3.30;2.57;;;9.60;99.90;;;;;;5114927;28;20269;-68
2024/03/24 10:17:14;;;;;;;2.70;2.50;;;9.40;99.90;;;;;;5114771;28;20462;-68
2024/03/24 10:19:40;;;;;;;2.67;2.30;;;9.30;99.90;;;;;;5114916;28;20448;-68
2024/03/24 10:22:08;;;;;;;3.33;2.63;;;9.20;99.90;;;;;;5115017;28;21012;-68
2024/03/24 10:24:35;;;;;;;6.17;2.70;;;9.40;99.90;;;;;;5114875;28;20547;-68
2024/03/24 10:27:02;;;;;;;2.90;2.50;;;9.50;99.90;;;;;;5114605;28;20454;-68
2024/03/24 10:29:28;;;;;;;2.90;2.70;;;9.50;99.90;;;;;;5114474;28;20453;-68
2024/03/24 10:31:55;;;;;;;2.53;2.33;;;9.40;99.90;;;;;;5114434;28;20457;-68
2024/03/24 10:34:21;;;;;;;4.60;2.93;;;9.40;99.90;;;;;;5114653;28;20533;-68
2024/03/24 10:36:47;;;;;;;3.03;2.83;;;9.30;99.90;;;;;;5114556;28;20556;-68
2024/03/24 10:39:14;;;;;;;6.10;2.70;;;9.30;99.90;;;;;;5114493;28;20183;-68
2024/03/24 10:41:42;;;;;;;2.20;2.10;;;9.20;99.90;;;;;;5114284;28;20499;-68
2024/03/24 10:44:09;;;;;;;2.50;2.30;;;9.10;99.90;;;;;;5114275;28;20524;-68
2024/03/24 10:46:37;;;;;;;2.60;2.40;;;9.10;99.90;;;;;;5114144;28;20530;-68
2024/03/24 10:49:04;;;;;;;2.53;2.33;;;9.10;99.90;;;;;;5114463;28;20449;-68
2024/03/24 10:51:31;;;;;;;3.90;2.83;;;9.00;99.90;;;;;;5114217;28;20856;-68
2024/03/24 10:54:02;;;;;;;2.30;2.20;;;8.80;99.90;;;;;;5114130;28;20442;-68
2024/03/24 10:56:31;;;;;;;2.20;2.10;;;8.60;99.90;;;;;;5114219;28;20544;-68
2024/03/24 10:58:57;;;;;;;2.43;2.27;;;8.50;99.90;;;;;;5113521;28;20541;-68
2024/03/24 11:01:24;;;;;;;2.50;2.30;;;8.40;99.90;;;;;;5113858;28;20484;-68
2024/03/24 11:03:52;;;;;;;3.50;2.70;;;8.40;99.90;;;;;;5114098;28;20442;-68
2024/03/24 11:06:18;;;;;;;2.97;2.77;;;8.40;99.90;;;;;;5114069;28;20453;-68
2024/03/24 11:08:45;;;;;;;4.60;2.60;;;8.40;99.90;;;;;;5113844;28;20536;-68
2024/03/24 11:11:13;;;;;;;3.40;3.20;;;8.40;99.90;;;;;;5113783;28;20454;-68
2024/03/24 11:13:40;;;;;;;3.00;2.70;;;8.40;99.90;;;;;;5113981;28;20525;-68
2024/03/24 11:16:07;;;;;;;3.00;2.80;;;8.40;99.90;;;;;;5113876;28;20485;-68
2024/03/24 11:18:35;;;;;;;2.60;2.40;;;8.30;99.90;;;;;;5113763;28;20448;-68
2024/03/24 11:21:05;;;;;;;5.03;2.60;;;8.30;99.90;;;;;;5113583;28;20511;-69
2024/03/24 11:23:35;;;;;;;2.67;2.57;;;8.30;99.90;;;;;;5113651;28;20503;-68
2024/03/24 11:26:04;;;;;;;3.17;2.93;;;8.40;99.90;;;;;;5113466;28;20821;-68
2024/03/24 11:28:41;;;;;;;3.23;2.77;;;8.50;99.90;;;;;;5113697;28;20448;-67
2024/03/24 11:31:12;;;;;;;2.97;2.63;;;8.50;99.90;;;;;;5113435;28;20936;-68
2024/03/24 11:33:38;;;;;;;3.37;3.07;;;8.50;99.90;;;;;;5113605;28;20473;-68
2024/03/24 11:36:17;;;;;;;3.03;2.73;;;8.60;99.90;;;;;;5113481;28;20529;-68
2024/03/24 11:38:44;;;;;;;3.40;3.10;;;8.60;99.90;;;;;;5113741;28;20191;-68
2024/03/24 11:41:14;;;;;;;3.17;2.87;;;8.50;99.90;;;;;;5113438;28;20527;-68
2024/03/24 11:43:41;;;;;;;3.10;2.83;;;8.50;99.90;;;;;;5113448;28;20528;-68
2024/03/24 11:46:09;;;;;;;3.33;3.00;;;8.60;99.90;;;;;;5113247;28;20477;-68
2024/03/24 11:48:37;;;;;;;3.90;3.13;;;8.50;99.90;;;;;;5113448;28;20470;-68
2024/03/24 11:51:06;;;;;;;3.90;3.60;;;8.50;99.90;;;;;;5113284;28;20552;-68
2024/03/24 11:53:32;;;;;;;3.53;3.23;;;8.50;99.90;;;;;;5113453;28;20499;-68
2024/03/24 11:56:00;;;;;;;4.03;3.43;;;8.60;99.90;;;;;;5113429;28;20843;-68
2024/03/24 11:58:26;;;;;;;4.90;3.43;;;8.70;99.90;;;;;;5113274;28;20835;-68
2024/03/24 12:00:54;;;;;;;3.23;3.00;;;8.80;99.90;;;;;;5113253;28;20509;-69
2024/03/24 12:03:19;;;;;;;3.93;3.43;;;8.80;99.90;;;;;;5112995;28;20812;-69
2024/03/24 12:05:46;;;;;;;3.20;2.90;;;8.60;99.90;;;;;;5113393;28;21008;-68
2024/03/24 12:08:12;;;;;;;3.20;3.00;;;8.50;99.90;;;;;;5113177;28;20237;-67
2024/03/24 12:10:39;;;;;;;3.10;2.90;;;8.30;99.90;;;;;;5115539;28;20453;-67
2024/03/24 12:13:05;;;;;;;2.83;2.60;;;8.30;99.90;;;;;;5117353;28;20223;-68
2024/03/24 12:15:31;;;;;;;2.47;2.10;;;8.30;99.90;;;;;;5117232;28;20965;-68
2024/03/24 12:18:07;;;;;;;3.30;2.50;;;8.30;99.90;;;;;;5117075;28;20198;-67
2024/03/24 12:20:33;;;;;;;2.40;2.30;;;8.30;99.90;;;;;;5117197;28;20472;-67
2024/03/24 12:22:59;;;;;;;3.10;2.83;;;8.30;99.90;;;;;;5117214;28;20477;-68
2024/03/24 12:25:26;;;;;;;3.17;2.87;;;8.40;99.90;;;;;;5117111;28;21030;-68
2024/03/24 12:27:53;;;;;;;3.20;3.00;;;8.20;99.90;;;;;;5117021;28;20191;-68
2024/03/24 12:30:22;;;;;;;2.70;2.50;;;8.20;99.90;;;;;;5116925;27;20453;-68
2024/03/24 12:32:48;;;;;;;2.93;2.73;;;8.40;99.90;;;;;;5116804;28;20528;-69
2024/03/24 12:35:17;;;;;;;2.73;2.53;;;8.40;99.90;;;;;;5117078;28;20456;-70
2024/03/24 12:37:44;;;;;;;2.93;2.73;;;8.40;99.90;;;;;;5116806;28;20444;-67
2024/03/24 12:40:16;;;;;;;3.30;3.10;;;8.50;99.90;;;;;;5116882;28;20506;-70
2024/03/24 12:42:41;;;;;;;2.77;2.50;;;8.40;99.90;;;;;;5116800;28;20463;-70
2024/03/24 12:45:09;;;;;;;3.57;3.37;;;8.50;99.90;;;;;;5116378;28;20544;-67
2024/03/24 12:47:34;;;;;;;3.13;2.93;;;8.50;99.90;;;;;;5116775;28;20279;-67
2024/03/24 12:50:01;;;;;;;3.20;3.00;;;8.60;99.90;;;;;;5116580;28;21029;-67
2024/03/24 12:52:27;;;;;;;3.70;3.40;;;8.70;99.90;;;;;;5116465;28;20214;-67
2024/03/24 12:54:55;;;;;;;4.17;3.30;;;8.90;99.90;;;;;;5116548;28;20457;-70